Latest Coastal Weather Observations for Coles Point

IDS60701

Issued at 9:21 pm CST Tuesday 28 April 2015 (issued every 10 minutes, with the page automatically refreshed every 10 minutes)

About coastal observations | Map of coastal stations | Coastal observations for SA | Marine services | Other Formats
Station Details ID: 018191 Name: COLES POINT Lat: -34.37 Lon: 135.37 Height: 28.0 m
Data from the previous 72 hours. | See also: Recent months at Coles Point
Date/Time
CST
Temp

°C
Wind Pressure Rain
since 9am
mm
Weather Cloud Vis
km
Sea
Height
m
Swell
Dir
 
Speed
knots
Gust
knots
hPa Trend Height
m
Period
s
Dir
28/09:00pm 9.9 ESE 5 5 1029.7 - 0.0 - - - - - - -
28/08:30pm 10.8 ESE 5 5 1029.6 - 0.0 - - - - - - -
28/08:00pm 11.9 ESE 5 6 1029.6 - 0.0 - - - - - - -
28/07:30pm 12.8 ESE 5 6 1029.6 - 0.0 - - - - - - -
28/07:00pm 12.6 ESE 3 3 1029.5 - 0.0 - - - - - - -
28/06:30pm 13.0 ESE 6 6 1029.2 - 0.0 - - - - - - -
28/06:00pm 14.0 ESE 6 7 1028.9 - 0.0 - - - - - - -
28/05:30pm 15.4 SE 7 8 1028.7 - 0.0 - - - - - - -
28/05:00pm 15.9 SSE 9 12 1028.5 - 0.0 - - - - - - -
28/04:30pm 16.1 SSW 6 11 1028.5 - 0.0 - - - - - - -
28/04:00pm 15.5 SW 5 7 1028.5 - 0.0 - - - - - - -
28/03:30pm 15.5 SW 5 6 1028.5 - 0.0 - - - - - - -
28/03:00pm 15.4 SW 5 7 1028.6 - 0.0 - - - - - - -
28/02:30pm 15.8 SW 6 9 1028.7 - 0.0 - - - - - - -
28/02:00pm 16.6 SW 6 9 1028.9 - 0.0 - - - - - - -
28/01:30pm 16.5 WSW 6 8 1029.2 - 0.0 - - - - - - -
28/01:00pm 15.9 WSW 7 9 1029.4 - 0.0 - - - - - - -
28/12:30pm 16.1 WSW 7 9 1029.9 - 0.0 - - - - - - -
28/12:00pm 16.4 W 6 8 1030.3 - 0.0 - - - - - - -
28/11:30am 16.9 NW 1 4 1030.7 - 0.0 - - - - - - -
28/11:00am 16.1 N 4 6 1031.0 - 0.0 - - - - - - -
28/10:30am 15.0 WSW 1 3 1031.2 - 0.0 - - - - - - -
28/10:00am 14.0 SW 4 5 1031.4 - 0.0 - - - - - - -
28/09:30am 13.0 NNE 1 3 1031.5 - 0.0 - - - - - - -
28/09:00am 11.9 ENE 6 6 1031.3 - 0.0 - - - - - - -
28/08:30am 12.2 NE 5 7 1031.1 - 0.0 - - - - - - -
28/08:00am 9.3 ENE 5 6 1030.8 - 0.0 - - - - - - -
28/07:30am 8.4 CALM 0 0 1030.5 - 0.0 - - - - - - -
28/07:00am 9.3 ENE 2 2 1030.2 - 0.0 - - - - - - -
28/06:30am 9.3 NE 5 6 1030.0 - 0.0 - - - - - - -
28/06:00am 9.7 E 5 6 1030.1 - 0.0 - - - - - - -
28/05:30am 9.7 E 4 5 1029.9 - 0.0 - - - - - - -
28/05:00am 9.2 ESE 3 5 1029.8 - 0.0 - - - - - - -
28/04:30am 8.4 SE 2 2 1029.7 - 0.0 - - - - - - -
28/04:00am 9.4 SE 5 5 1029.5 - 0.0 - - - - - - -
28/03:30am 9.2 ESE 1 2 1029.4 - 0.0 - - - - - - -
28/03:00am 9.7 CALM 0 0 1029.4 - 0.0 - - - - - - -
28/02:30am 10.6 CALM 0 0 1029.4 - 0.0 - - - - - - -
28/02:00am 11.6 CALM 0 0 1029.4 - 0.0 - - - - - - -
28/01:30am 11.5 CALM 0 0 1029.4 - 0.0 - - - - - - -
28/01:00am 11.5 CALM 0 0 1029.7 - 0.0 - - - - - - -
28/12:30am 10.9 CALM 0 0 1029.7 - 0.0 - - - - - - -
28/12:00am 10.8 CALM 0 0 1029.7 - 0.0 - - - - - - -
 
Date/Time
CST
Temp

°C
Wind Pressure Rain
since 9am
mm
Weather Cloud Vis
km
Sea
Height
m
Swell
Dir
 
Speed
knots
Gust
knots
hPa Trend Height
m
Period
s
Dir
27/11:30pm 10.5 CALM 0 0 1029.6 - 0.0 - - - - - - -
27/11:00pm 11.3 CALM 0 0 1030.0 - 0.0 - - - - - - -
27/10:30pm 10.9 CALM 0 0 1030.0 - 0.0 - - - - - - -
27/10:00pm 11.0 CALM 0 2 1030.0 - 0.0 - - - - - - -
27/09:30pm 12.2 SE 3 4 1030.1 - 0.0 - - - - - - -
27/09:00pm 12.4 SE 3 4 1030.0 - 0.0 - - - - - - -
27/08:30pm 12.4 SSE 7 11 1029.9 - 0.0 - - - - - - -
27/08:00pm 12.8 S 8 11 1030.0 - 0.0 - - - - - - -
27/07:30pm 12.7 SSW 1 3 1029.9 - 0.0 - - - - - - -
27/07:00pm 12.6 SSE 1 2 1029.6 - 0.0 - - - - - - -
27/06:30pm 13.0 S 3 7 1029.3 - 0.0 - - - - - - -
27/06:00pm 13.5 S 8 12 1029.1 - 0.0 - - - - - - -
27/05:30pm 13.7 S 8 10 1029.1 - 0.0 - - - - - - -
27/05:00pm 14.2 SSW 12 15 1028.8 - 0.0 - - - - - - -
27/04:30pm 15.0 SSW 10 13 1028.6 - 0.0 - - - - - - -
27/04:00pm 15.5 SSW 13 16 1028.6 - 0.0 - - - - - - -
27/03:30pm 15.4 SSW 11 14 1028.6 - 0.0 - - - - - - -
27/03:00pm 16.1 S 11 15 1028.5 - 0.0 - - - - - - -
27/02:30pm 16.2 S 12 15 1028.4 - 0.0 - - - - - - -
27/02:00pm 16.1 S 11 16 1028.3 - 0.0 - - - - - - -
27/01:30pm 16.3 WSW 6 8 1028.5 - 0.0 - - - - - - -
27/01:00pm 15.5 WSW 6 8 1028.7 - 0.0 - - - - - - -
27/12:30pm 15.5 WSW 5 7 1029.1 - 0.0 - - - - - - -
27/12:00pm 15.7 SW 5 9 1029.5 - 0.0 - - - - - - -
27/11:30am 13.6 ENE 1 2 1030.0 - 0.0 - - - - - - -
27/11:00am 12.7 ESE 5 9 1030.3 - 0.0 - - - - - - -
27/10:30am 14.0 S 15 17 1030.2 - 0.0 - - - - - - -
27/10:00am 13.9 SSW 9 11 1030.1 - 0.0 - - - - - - -
27/09:30am 13.3 SSW 7 9 1030.0 - 0.0 - - - - - - -
27/09:00am 13.3 E 1 2 1029.6 - 0.0 - - - - - - -
27/08:30am 13.4 E 1 3 1029.3 - 0.0 - - - - - - -
27/08:00am 12.7 NNE 1 2 1029.1 - 0.0 - - - - - - -
27/07:30am 12.1 NE 3 4 1028.7 - 0.0 - - - - - - -
27/07:00am 12.0 CALM 0 0 1028.5 - 0.0 - - - - - - -
27/06:30am 12.1 CALM 0 0 1028.4 - 0.0 - - - - - - -
27/06:00am 12.1 CALM 0 4 1028.2 - 0.0 - - - - - - -
27/05:30am 12.1 CALM 0 0 1028.1 - 0.0 - - - - - - -
27/05:00am 12.4 CALM 0 0 1028.0 - 0.0 - - - - - - -
27/04:30am 12.3 CALM 0 0 1027.9 - 0.0 - - - - - - -
27/04:00am 12.4 CALM 0 0 1027.7 - 0.0 - - - - - - -
27/03:30am 12.2 CALM 0 0 1027.7 - 0.0 - - - - - - -
27/03:00am 12.3 SSE 2 3 1027.8 - 0.0 - - - - - - -
27/02:30am 12.0 CALM 0 0 1027.9 - 0.0 - - - - - - -
27/02:00am 12.3 CALM 0 0 1028.0 - 0.0 - - - - - - -
27/01:30am 11.9 SSE 1 1 1028.0 - 0.0 - - - - - - -
27/01:00am 12.3 SSE 1 2 1028.1 - 0.0 - - - - - - -
27/12:30am 12.5 SSE 3 4 1028.2 - 0.0 - - - - - - -
27/12:00am 12.7 SSE 2 3 1028.2 - 0.0 - - - - - - -
 
Date/Time
CST
Temp

°C
Wind Pressure Rain
since 9am
mm
Weather Cloud Vis
km
Sea
Height
m
Swell
Dir
 
Speed
knots
Gust
knots
hPa Trend Height
m
Period
s
Dir
26/11:30pm 12.4 S 5 8 1028.2 - 0.0 - - - - - - -
26/11:00pm 13.4 S 5 10 1028.4 - 0.0 - - - - - - -
26/10:30pm 13.5 CALM 0 0 1028.3 - 0.0 - - - - - - -
26/10:00pm 12.9 CALM 0 0 1028.4 - 0.0 - - - - - - -
26/09:30pm 13.1 CALM 0 0 1028.3 - 0.0 - - - - - - -
26/09:00pm 13.4 S 2 2 1028.2 - 0.0 - - - - - - -
26/08:30pm 13.5 S 1 2 1028.2 - 0.0 - - - - - - -
26/08:00pm 13.9 S 5 7 1028.1 - 0.0 - - - - - - -
26/07:30pm 14.0 SSW 6 9 1028.0 - 0.0 - - - - - - -
26/07:00pm 13.9 S 4 5 1027.7 - 0.0 - - - - - - -
26/06:30pm 14.2 S 4 6 1027.4 - 0.0 - - - - - - -
26/06:00pm 14.6 S 8 11 1027.2 - 0.0 - - - - - - -
26/05:30pm 14.8 S 9 13 1026.8 - 0.0 - - - - - - -
26/05:00pm 15.3 SSW 8 11 1026.6 - 0.0 - - - - - - -
26/04:30pm 15.6 S 6 8 1026.4 - 0.0 - - - - - - -
26/04:00pm 15.6 S 8 11 1026.3 - 0.0 - - - - - - -
26/03:30pm 15.6 S 9 12 1026.2 - 0.0 - - - - - - -
26/03:00pm 15.4 S 9 13 1026.2 - 0.0 - - - - - - -
26/02:30pm 15.0 SSW 9 13 1026.2 - 0.0 - - - - - - -
26/02:00pm 15.3 SSW 14 18 1026.0 - 0.0 - - - - - - -
26/01:30pm 16.2 SSW 8 11 1026.1 - 0.0 - - - - - - -
26/01:00pm 16.1 SSW 9 12 1026.3 - 0.0 - - - - - - -
26/12:30pm 16.0 SSW 10 12 1026.5 - 0.0 - - - - - - -
26/12:00pm 15.9 S 12 16 1026.7 - 0.0 - - - - - - -
26/11:30am 15.9 S 11 14 1026.8 - 0.0 - - - - - - -
26/11:00am 16.0 S 11 15 1026.9 - 0.0 - - - - - - -
26/10:30am 15.9 S 10 15 1026.7 - 0.0 - - - - - - -
26/10:00am 15.4 S 8 11 1026.7 - 0.0 - - - - - - -
26/09:30am 14.8 SSE 6 8 1026.7 - 0.0 - - - - - - -
26/09:00am 14.5 SSE 7 9 1026.7 - 0.8 - - - - - - -
26/08:30am 14.3 S 8 11 1026.4 - 0.8 - - - - - - -
26/08:00am 13.9 S 7 9 1026.2 - 0.8 - - - - - - -
26/07:30am 12.8 S 6 8 1025.7 - 0.8 - - - - - - -
26/07:00am 12.3 SSE 4 4 1025.4 - 0.8 - - - - - - -
26/06:30am 12.5 SSE 4 5 1025.1 - 0.8 - - - - - - -
26/06:00am 12.9 SSE 5 7 1024.8 - 0.8 - - - - - - -
26/05:30am 12.6 SSE 6 9 1024.6 - 0.8 - - - - - - -
26/05:00am 12.5 SSW 8 11 1024.4 - 0.8 - - - - - - -
26/04:30am 11.7 SSE 6 9 1024.3 - 0.8 - - - - - - -
26/04:00am 11.5 S 2 3 1024.0 - 0.8 - - - - - - -
26/03:30am 11.3 SE 6 7 1023.9 - 0.8 - - - - - - -
26/03:00am 11.2 SSE 4 5 1023.9 - 0.8 Recent precip. - - - - - -
26/02:30am 10.6 CALM 0 0 1023.8 - 0.6 - - - - - - -
26/02:00am 10.1 CALM 0 0 1023.7 - 0.6 - - - - - - -
26/01:30am 11.4 CALM 0 0 1023.8 - 0.6 - - - - - - -
26/01:00am 11.8 SE 2 2 1023.9 - 0.4 - - - - - - -
26/12:30am 12.2 SSE 6 8 1024.1 - 0.4 - - - - - - -
26/12:00am 12.7 SSW 10 13 1023.9 - 0.4 - - - - - - -
 
Date/Time
CST
Temp

°C
Wind Pressure Rain
since 9am
mm
Weather Cloud Vis
km
Sea
Height
m
Swell
Dir
 
Speed
knots
Gust
knots
hPa Trend Height
m
Period
s
Dir
25/11:30pm 12.8 SSW 6 9 1024.0 - 0.4 - - - - - - -
25/11:00pm 13.0 SSW 8 11 1024.1 - 0.4 - - - - - - -
25/10:30pm 13.4 SSW 6 7 1024.2 - 0.4 - - - - - - -
25/10:00pm 13.4 SSE 4 5 1023.9 - 0.4 - - - - - - -
25/09:30pm 13.3 SSE 4 5 1023.5 - 0.4 - - - - - - -

Other Formats:

Comma delimited format used in spreadsheet applications
http://www.bom.gov.au/fwo/IDS60701/IDS60701.94658.axf

JavaScript Object Notation format (JSON) in row-major order
http://www.bom.gov.au/fwo/IDS60701/IDS60701.94658.json